Ernest Campbell — WDB3005 — position and weather

sailwx.info

Track history (hours):
 
Tides and Currents Weather Stations Pressure Air Temp Water Temp Dewpoint Dewpoint Depression Visibility Wind Speed Wind Dir Waves Ship Positions

Ernest Campbell

Owner: Campbell Leasing Company LLC, Wrangell, AK. More information available from US FCC via Universal Licensing System and Coast Guard Vessel Documentation Center.

Last reported at 2015-Sep-03 03:33 UTC. Time now 2015-Sep-03 04:35 UTC.
Position N 47°44' W 122°27'.

Length 33 m; draft 4.6 m.

Type: Tow > 200 m length. MMSI: 366882320.

Date/timePositionNaut miles runAvg speedWind from/ knotsBaromVisibWave heightAir tempDewpointWater temp
2015-Sep-03 03:33N 47°44' W 122°27'0 5.6
2015-Sep-03 03:33N 47°44' W 122°27'6 6.4
2015-Sep-03 02:34N 47°51' W 122°28'0 7.1
2015-Sep-03 02:32N 47°51' W 122°29'7 7.4
2015-Sep-03 01:33N 47°57' W 122°34'13 8.4
2015-Sep-03 00:01N 48°08' W 122°43'5 9.5
2015-Sep-02 23:31N 48°11' W 122°49'2 7.8
2015-Sep-02 23:16N 48°11' W 122°52'5 7.1
2015-Sep-02 22:33N 48°12' W 122°60'7 7.0
2015-Sep-02 21:33N 48°11' W 123°10'6 6.4
2015-Sep-02 20:33N 48°09' W 123°19'4 5.1
2015-Sep-02 19:45N 48°08' W 123°25'0 0.4
2015-Sep-02 19:33N 48°08' W 123°25'0 0.0
2015-Sep-02 18:32N 48°08' W 123°25'0 0.0
2015-Sep-02 17:33N 48°08' W 123°25'0 0.1
2015-Sep-02 16:25N 48°08' W 123°25'0 0.1
2015-Sep-02 15:33N 48°08' W 123°25'0 0.0
2015-Sep-02 14:36N 48°08' W 123°25'0 0.1
2015-Sep-02 14:33N 48°08' W 123°25'3 2.8
2015-Sep-02 13:36N 48°09' W 123°21'0 4.4
2015-Sep-02 13:33N 48°09' W 123°21'1 4.3
2015-Sep-02 13:16N 48°09' W 123°19'3 3.6
2015-Sep-02 12:30N 48°10' W 123°15'3 3.5
2015-Sep-02 11:33N 48°11' W 123°11'4 4.3
2015-Sep-02 10:33N 48°13' W 123°05'22 4.9
2015-Sep-02 06:10N 48°01' W 122°37'1 5.7
2015-Sep-02 06:04N 48°01' W 122°36'3 6.4
2015-Sep-02 05:34N 47°58' W 122°34'0 5.9
2015-Sep-02 05:29N 47°58' W 122°34'4 4.8
2015-Sep-02 04:34N 47°55' W 122°29'043.2
2015-Sep-02 04:33N 47°55' W 122°29'5 4.8
2015-Sep-02 03:34N 47°50' W 122°27'1 4.4
2015-Sep-02 03:18N 47°49' W 122°27'4 5.1
2015-Sep-02 02:34N 47°45' W 122°26'0 2.0
2015-Sep-02 02:33N 47°45' W 122°26'5 5.3
2015-Sep-02 01:34N 47°40' W 122°27'0 4.7
2015-Sep-02 01:33N 47°40' W 122°27'5 4.7
2015-Sep-02 00:33N 47°36' W 122°23'0 3.2
2015-Sep-02 00:33N 47°36' W 122°23'2 2.5
2015-Sep-01 23:33N 47°34' W 122°21'0 0.0
2015-Sep-01 23:32N 47°34' W 122°21'0 0.1
2015-Sep-01 22:34N 47°34' W 122°21'0 0.0
2015-Sep-01 22:17N 47°34' W 122°21'0 0.0
2015-Sep-01 21:33N 47°34' W 122°21'0 0.0
2015-Sep-01 21:32N 47°34' W 122°21'0 0.0
2015-Sep-01 20:33N 47°34' W 122°21'0 0.2
2015-Sep-01 20:31N 47°34' W 122°21'0 0.0
2015-Sep-01 19:33N 47°34' W 122°21'0 0.0
2015-Sep-01 19:31N 47°34' W 122°21'0 0.0
2015-Sep-01 18:33N 47°34' W 122°21'0 0.0
2015-Sep-01 18:31N 47°34' W 122°21'0 0.0
2015-Sep-01 17:32N 47°34' W 122°21'0 0.0
2015-Sep-01 17:31N 47°34' W 122°21'0 0.0
2015-Sep-01 16:34N 47°34' W 122°21'0 0.0
2015-Sep-01 16:31N 47°34' W 122°21'0 0.0
2015-Sep-01 15:33N 47°34' W 122°21'0 0.0
2015-Sep-01 15:31N 47°34' W 122°21'0 0.0
2015-Sep-01 14:33N 47°34' W 122°21'0 0.0
2015-Sep-01 14:31N 47°34' W 122°21'0 0.0
2015-Sep-01 13:33N 47°34' W 122°21'0 0.1
2015-Sep-01 13:31N 47°34' W 122°21'0 0.0
2015-Sep-01 12:34N 47°34' W 122°21'0 0.0
2015-Sep-01 12:30N 47°34' W 122°21'0 0.0
2015-Sep-01 11:34N 47°34' W 122°21'0 0.0
2015-Sep-01 11:30N 47°34' W 122°21'0 0.0
2015-Sep-01 10:34N 47°34' W 122°21'0 0.0
2015-Sep-01 10:30N 47°34' W 122°21'0 0.0
2015-Sep-01 09:33N 47°34' W 122°21'0 0.0
2015-Sep-01 09:30N 47°34' W 122°21'0 0.0
2015-Sep-01 08:33N 47°34' W 122°21'0 0.0
2015-Sep-01 08:29N 47°34' W 122°21'0 0.0
2015-Sep-01 07:33N 47°34' W 122°21'0 0.0
2015-Sep-01 07:29N 47°34' W 122°21'0 0.0
2015-Sep-01 06:33N 47°34' W 122°21'0 0.0
2015-Sep-01 06:29N 47°34' W 122°21'0 0.0
2015-Sep-01 05:34N 47°34' W 122°21'0 0.0
2015-Sep-01 05:28N 47°34' W 122°21'0 0.0
2015-Sep-01 03:33N 47°34' W 122°21'0 0.0
2015-Sep-01 03:29N 47°34' W 122°21'0 0.0
2015-Sep-01 02:33N 47°34' W 122°21'0 0.0
2015-Sep-01 02:33N 47°34' W 122°21'0 0.0
2015-Sep-01 01:33N 47°34' W 122°21'0 0.0
2015-Sep-01 01:33N 47°34' W 122°21'0 0.0
2015-Sep-01 00:34N 47°34' W 122°21'0 0.0
2015-Sep-01 00:33N 47°34' W 122°21'0 0.0
2015-Aug-31 23:34N 47°34' W 122°21'0 0.0
2015-Aug-31 23:33N 47°34' W 122°21'0 0.0
2015-Aug-31 22:33N 47°34' W 122°21'0 0.0
2015-Aug-31 22:33N 47°34' W 122°21'0 0.0
2015-Aug-31 21:33N 47°34' W 122°21'0 0.2
2015-Aug-31 21:32N 47°34' W 122°21'0 0.0
2015-Aug-31 20:33N 47°34' W 122°21'0 0.0
2015-Aug-31 20:32N 47°34' W 122°21'0 0.0
2015-Aug-31 19:33N 47°34' W 122°21'0 0.0
2015-Aug-31 19:32N 47°34' W 122°21'0 0.0
2015-Aug-31 18:33N 47°34' W 122°21'0 0.0
2015-Aug-31 18:32N 47°34' W 122°21'0 0.0
2015-Aug-31 17:33N 47°34' W 122°21'0 0.0
2015-Aug-31 17:32N 47°34' W 122°21'0 0.0
2015-Aug-31 16:33N 47°34' W 122°21'0 0.0
2015-Aug-31 16:31N 47°34' W 122°21'0 0.0
2015-Aug-31 15:33N 47°34' W 122°21'0 0.0
2015-Aug-31 15:26N 47°34' W 122°21'0 0.0
2015-Aug-31 14:33N 47°34' W 122°21'0 0.0
2015-Aug-31 14:31N 47°34' W 122°21'0 0.0
2015-Aug-31 13:34N 47°34' W 122°21'0 0.1
2015-Aug-31 13:31N 47°34' W 122°21'0 0.0
2015-Aug-31 12:33N 47°34' W 122°21'0 0.0
2015-Aug-31 12:30N 47°34' W 122°21'0 0.0
2015-Aug-31 11:31N 47°34' W 122°21'0 0.0
2015-Aug-31 11:30N 47°34' W 122°21'0 0.0
2015-Aug-31 10:33N 47°34' W 122°21'0 0.1
2015-Aug-31 10:30N 47°34' W 122°21'0 0.0
2015-Aug-31 09:33N 47°34' W 122°21'0 0.0
2015-Aug-31 09:15N 47°34' W 122°21'0 0.0
2015-Aug-31 08:33N 47°34' W 122°21'0 0.0
2015-Aug-31 08:28N 47°34' W 122°21'0 0.0
2015-Aug-31 07:33N 47°34' W 122°21'0 0.1
2015-Aug-31 07:29N 47°34' W 122°21'0 0.0
2015-Aug-31 06:33N 47°34' W 122°21'0 0.0
2015-Aug-31 06:29N 47°34' W 122°21'0 0.0
2015-Aug-31 05:33N 47°34' W 122°21'0 0.0
2015-Aug-31 05:19N 47°34' W 122°21'0 0.0
2015-Aug-31 04:33N 47°34' W 122°21'0 0.0
2015-Aug-31 04:28N 47°34' W 122°21'0 0.0
2015-Aug-31 03:33N 47°34' W 122°21'0 0.6
2015-Aug-31 03:33N 47°34' W 122°21'0 0.0
2015-Aug-31 02:33N 47°34' W 122°21'0 0.0
2015-Aug-31 02:33N 47°34' W 122°21'0 0.0
2015-Aug-31 01:34N 47°34' W 122°21'0 0.0
2015-Aug-31 01:33N 47°34' W 122°21'0 0.0
2015-Aug-31 00:33N 47°34' W 122°21'0 0.0
2015-Aug-31 00:33N 47°34' W 122°21'0 0.0
2015-Aug-30 23:34N 47°34' W 122°21'0 0.0
2015-Aug-30 23:33N 47°34' W 122°21'0 0.0
2015-Aug-30 22:33N 47°34' W 122°21'0 0.4
2015-Aug-30 22:33N 47°34' W 122°21'0 0.0
2015-Aug-30 21:33N 47°34' W 122°21'0 0.2
2015-Aug-30 21:32N 47°34' W 122°21'0 0.0
2015-Aug-30 20:32N 47°34' W 122°21'0 0.0
2015-Aug-30 19:32N 47°34' W 122°21'0 0.0
2015-Aug-30 18:33N 47°34' W 122°21'0 0.0
2015-Aug-30 17:33N 47°34' W 122°21'0 0.0
2015-Aug-30 16:33N 47°34' W 122°21'0 0.0
2015-Aug-30 15:33N 47°34' W 122°21'2 1.8
2015-Aug-30 14:33N 47°36' W 122°21'0 0.1
2015-Aug-30 13:33N 47°36' W 122°22'2 1.9
2015-Aug-30 12:33N 47°34' W 122°21'0 0.0
2015-Aug-30 11:33N 47°34' W 122°21'0 0.0
2015-Aug-30 10:33N 47°34' W 122°21'0 0.0
2015-Aug-30 09:33N 47°34' W 122°21'0 0.0
2015-Aug-30 08:33N 47°34' W 122°21'0 0.0
2015-Aug-30 07:33N 47°34' W 122°21'0 0.0
2015-Aug-30 06:33N 47°34' W 122°21'0 0.0
2015-Aug-30 05:34N 47°34' W 122°21'0 0.0
2015-Aug-30 04:34N 47°34' W 122°21'0 0.0
2015-Aug-30 03:33N 47°34' W 122°21'0 0.0
2015-Aug-30 02:33N 47°34' W 122°21'0 0.0
2015-Aug-30 01:32N 47°34' W 122°21'0 0.0
2015-Aug-30 00:33N 47°34' W 122°21'0 0.0
2015-Aug-29 23:33N 47°34' W 122°21'0 0.0
2015-Aug-29 22:33N 47°34' W 122°21'1 1.3
2015-Aug-29 21:33N 47°36' W 122°21'2 1.7
2015-Aug-29 20:33N 47°37' W 122°22'3 2.7
2015-Aug-29 19:33N 47°34' W 122°21'0 0.0
2015-Aug-29 18:33N 47°34' W 122°21'0 0.0
2015-Aug-29 17:32N 47°34' W 122°21'0 0.0
2015-Aug-29 16:33N 47°34' W 122°21'0 0.1
2015-Aug-29 15:33N 47°34' W 122°21'2 1.5
2015-Aug-29 14:33N 47°36' W 122°22'2 1.9
2015-Aug-29 13:33N 47°37' W 122°23'2 1.9
2015-Aug-29 12:33N 47°35' W 122°22'0 0.1
2015-Aug-29 11:34N 47°35' W 122°23'0 0.0
2015-Aug-29 10:33N 47°35' W 122°23'0 0.1
2015-Aug-29 09:33N 47°35' W 122°22'0 0.0
2015-Aug-29 08:33N 47°35' W 122°22'0 0.1
2015-Aug-29 07:33N 47°35' W 122°22'0 0.1
2015-Aug-29 06:33N 47°35' W 122°22'0 0.0
2015-Aug-29 05:34N 47°35' W 122°22'0 0.1
2015-Aug-29 04:34N 47°35' W 122°22'0 0.1
2015-Aug-29 03:33N 47°35' W 122°22'0 0.1
2015-Aug-29 02:33N 47°35' W 122°22'0 0.0
2015-Aug-29 01:33N 47°35' W 122°23'0 0.0
2015-Aug-29 00:33N 47°35' W 122°23'0 0.0
2015-Aug-28 23:33N 47°35' W 122°22'1 1.1
2015-Aug-28 22:33N 47°36' W 122°23'1 1.2
2015-Aug-28 21:33N 47°38' W 122°23'0 0.0
2015-Aug-28 20:33N 47°38' W 122°23'0 0.0
2015-Aug-28 19:33N 47°38' W 122°23'0 0.5
2015-Aug-28 18:33N 47°37' W 122°23'2 2.2
2015-Aug-28 17:33N 47°35' W 122°21'0 0.0
2015-Aug-28 16:33N 47°35' W 122°21'0 0.0
2015-Aug-28 15:33N 47°35' W 122°21'2 1.7
2015-Aug-28 14:33N 47°37' W 122°22'1 1.0
2015-Aug-28 13:33N 47°38' W 122°23'2 2.3
2015-Aug-28 12:33N 47°36' W 122°21'0 0.4
2015-Aug-28 11:33N 47°35' W 122°21'0 0.0
2015-Aug-28 10:33N 47°35' W 122°21'0 0.0
2015-Aug-28 09:33N 47°35' W 122°21'0 0.0
2015-Aug-28 08:33N 47°35' W 122°21'0 0.0
2015-Aug-28 07:33N 47°35' W 122°21'0 0.0
2015-Aug-28 06:33N 47°35' W 122°21'0 0.0
2015-Aug-28 05:33N 47°35' W 122°21'0 0.0
2015-Aug-28 04:33N 47°35' W 122°21'0 0.0
2015-Aug-28 03:33N 47°35' W 122°21'0 0.0
2015-Aug-28 02:33N 47°35' W 122°21'0 0.0
2015-Aug-28 01:33N 47°35' W 122°21'0 0.0
2015-Aug-28 00:33N 47°35' W 122°21'0 0.0
2015-Aug-27 23:33N 47°35' W 122°21'1 1.0
2015-Aug-27 22:33N 47°34' W 122°21'1 1.0
2015-Aug-27 21:32N 47°35' W 122°21'0 0.0
2015-Aug-27 20:29N 47°35' W 122°21'0 0.0
2015-Aug-27 19:32N 47°35' W 122°21'0 0.0
2015-Aug-27 18:33N 47°35' W 122°21'1 0.9
2015-Aug-27 17:33N 47°35' W 122°21'1 0.9
2015-Aug-27 16:33N 47°35' W 122°21'1 0.7
2015-Aug-27 15:33N 47°35' W 122°21'1 0.7
2015-Aug-27 14:32N 47°35' W 122°21'0 0.0
2015-Aug-27 13:32N 47°35' W 122°21'0 0.0
2015-Aug-27 12:33N 47°35' W 122°21'0 0.0
2015-Aug-27 11:33N 47°35' W 122°21'0 0.0
2015-Aug-27 10:30N 47°35' W 122°21'0 0.0
2015-Aug-27 09:33N 47°35' W 122°21'0 0.0
2015-Aug-27 08:32N 47°35' W 122°21'0 0.0
2015-Aug-27 07:14N 47°35' W 122°21'0 0.0
2015-Aug-27 06:33N 47°35' W 122°21'0 0.0
2015-Aug-27 05:31N 47°35' W 122°21'0 0.0
2015-Aug-27 04:33N 47°35' W 122°21'0 0.0
2015-Aug-27 03:33N 47°35' W 122°21'1 1.0
2015-Aug-27 02:33N 47°34' W 122°21'0 0.0
2015-Aug-27 01:33N 47°34' W 122°21'0 0.0
2015-Aug-27 00:33N 47°34' W 122°21'0 0.0
2015-Aug-26 23:33N 47°34' W 122°21'1 1.0
2015-Aug-26 22:33N 47°35' W 122°21'0 0.0
2015-Aug-26 21:33N 47°35' W 122°21'0 0.0
2015-Aug-26 20:33N 47°35' W 122°21'0 0.0
2015-Aug-26 19:33N 47°35' W 122°21'0 0.0
2015-Aug-26 18:33N 47°35' W 122°21'0 0.0
2015-Aug-26 17:33N 47°35' W 122°21'0 0.0
2015-Aug-26 16:33N 47°35' W 122°21'0 0.0
2015-Aug-26 15:33N 47°35' W 122°21'0 0.0
2015-Aug-26 14:33N 47°35' W 122°21'0 0.0
2015-Aug-26 13:33N 47°35' W 122°21'0 0.0
2015-Aug-26 12:33N 47°35' W 122°21'0 0.0
2015-Aug-26 11:33N 47°35' W 122°21'0 0.0
2015-Aug-26 10:33N 47°35' W 122°21'0 0.0
2015-Aug-26 09:33N 47°35' W 122°21'2 2.5
2015-Aug-26 08:33N 47°37' W 122°24'5 4.8
2015-Aug-26 07:33N 47°41' W 122°28'7 6.7
2015-Aug-26 06:33N 47°47' W 122°27'7 6.7
2015-Aug-26 05:33N 47°54' W 122°30'6 6.4
2015-Aug-26 04:33N 47°59' W 122°36'7 5.8
2015-Aug-26 03:24N 48°05' W 122°40'17 5.5
2015-Aug-26 00:21N 48°21' W 122°46'5 6.3
2015-Aug-25 23:31N 48°26' W 122°45'5 5.5
2015-Aug-25 22:33N 48°32' W 122°45'5 4.6
2015-Aug-25 21:33N 48°36' W 122°46'4 4.4
2015-Aug-25 20:33N 48°40' W 122°44'6 5.2
2015-Aug-25 19:27N 48°46' W 122°46'5 5.5
2015-Aug-25 18:33N 48°51' W 122°47'1 0.2
2015-Aug-25 13:04N 48°52' W 122°45'0 0.0
2015-Aug-25 12:21N 48°52' W 122°45'0 0.0
2015-Aug-25 11:24N 48°52' W 122°45'0 0.0
2015-Aug-25 10:28N 48°52' W 122°45'0 0.0
2015-Aug-25 09:33N 48°52' W 122°45'0 0.0
2015-Aug-25 08:29N 48°52' W 122°45'0 0.0
2015-Aug-25 07:20N 48°52' W 122°45'0 0.0
2015-Aug-25 06:07N 48°52' W 122°45'0 0.0
2015-Aug-25 05:28N 48°52' W 122°45'0 0.0
2015-Aug-25 04:34N 48°52' W 122°45'0 0.0
2015-Aug-25 03:27N 48°52' W 122°45'0 0.0
2015-Aug-25 02:33N 48°52' W 122°45'0 0.0
2015-Aug-25 01:32N 48°52' W 122°45'0 0.0
2015-Aug-25 00:33N 48°52' W 122°45'0 0.0
2015-Aug-24 23:27N 48°52' W 122°45'0 0.0
2015-Aug-24 22:33N 48°52' W 122°45'2 0.5
2015-Aug-24 19:25N 48°50' W 122°45'1 1.5
2015-Aug-24 18:33N 48°51' W 122°47'1 1.0
2015-Aug-24 17:33N 48°52' W 122°47'2 1.6
2015-Aug-24 16:33N 48°50' W 122°46'3 2.9
2015-Aug-24 15:33N 48°52' W 122°50'2 2.4
2015-Aug-24 14:33N 48°54' W 122°51'3 3.2
2015-Aug-24 13:33N 48°52' W 122°48'3 2.6
2015-Aug-24 12:33N 48°50' W 122°46'3 3.5
2015-Aug-24 11:33N 48°46' W 122°45'4 3.7
2015-Aug-24 10:33N 48°43' W 122°44'3 3.1
2015-Aug-24 09:33N 48°40' W 122°43'3 2.7
2015-Aug-24 08:33N 48°37' W 122°44'3 2.6
2015-Aug-24 07:33N 48°35' W 122°45'4 3.8
2015-Aug-24 06:33N 48°31' W 122°44'4 3.6
2015-Aug-24 05:33N 48°27' W 122°44'5 3.5
2015-Aug-24 04:09N 48°24' W 122°49'  
Track history (hours):
 
Tides and Currents Weather Stations Pressure Air Temp Water Temp Dewpoint Dewpoint Depression Visibility Wind Speed Wind Dir Waves Ship Positions

Ernest Campbell

Owner: Campbell Leasing Company LLC, Wrangell, AK. More information available from US FCC via Universal Licensing System and Coast Guard Vessel Documentation Center.

Last reported at 2015-Sep-03 03:33 UTC. Time now 2015-Sep-03 04:35 UTC.
Position N 47°44' W 122°27'.

Length 33 m; draft 4.6 m.

Type: Tow > 200 m length. MMSI: 366882320.

Date/timePositionNaut miles runAvg speedWind from/ knotsBaromVisibWave heightAir tempDewpointWater temp
2015-Sep-03 03:33N 47°44' W 122°27'0 5.6
2015-Sep-03 03:33N 47°44' W 122°27'6 6.4
2015-Sep-03 02:34N 47°51' W 122°28'0 7.1
2015-Sep-03 02:32N 47°51' W 122°29'7 7.4
2015-Sep-03 01:33N 47°57' W 122°34'13 8.4
2015-Sep-03 00:01N 48°08' W 122°43'5 9.5
2015-Sep-02 23:31N 48°11' W 122°49'2 7.8
2015-Sep-02 23:16N 48°11' W 122°52'5 7.1
2015-Sep-02 22:33N 48°12' W 122°60'7 7.0
2015-Sep-02 21:33N 48°11' W 123°10'6 6.4
2015-Sep-02 20:33N 48°09' W 123°19'4 5.1
2015-Sep-02 19:45N 48°08' W 123°25'0 0.4
2015-Sep-02 19:33N 48°08' W 123°25'0 0.0
2015-Sep-02 18:32N 48°08' W 123°25'0 0.0
2015-Sep-02 17:33N 48°08' W 123°25'0 0.1
2015-Sep-02 16:25N 48°08' W 123°25'0 0.1
2015-Sep-02 15:33N 48°08' W 123°25'0 0.0
2015-Sep-02 14:36N 48°08' W 123°25'0 0.1
2015-Sep-02 14:33N 48°08' W 123°25'3 2.8
2015-Sep-02 13:36N 48°09' W 123°21'0 4.4
2015-Sep-02 13:33N 48°09' W 123°21'1 4.3
2015-Sep-02 13:16N 48°09' W 123°19'3 3.6
2015-Sep-02 12:30N 48°10' W 123°15'3 3.5
2015-Sep-02 11:33N 48°11' W 123°11'4 4.3
2015-Sep-02 10:33N 48°13' W 123°05'22 4.9
2015-Sep-02 06:10N 48°01' W 122°37'1 5.7
2015-Sep-02 06:04N 48°01' W 122°36'3 6.4
2015-Sep-02 05:34N 47°58' W 122°34'0 5.9
2015-Sep-02 05:29N 47°58' W 122°34'4 4.8
2015-Sep-02 04:34N 47°55' W 122°29'043.2
2015-Sep-02 04:33N 47°55' W 122°29'5 4.8
2015-Sep-02 03:34N 47°50' W 122°27'1 4.4
2015-Sep-02 03:18N 47°49' W 122°27'4 5.1
2015-Sep-02 02:34N 47°45' W 122°26'0 2.0
2015-Sep-02 02:33N 47°45' W 122°26'5 5.3
2015-Sep-02 01:34N 47°40' W 122°27'0 4.7
2015-Sep-02 01:33N 47°40' W 122°27'5 4.7
2015-Sep-02 00:33N 47°36' W 122°23'0 3.2
2015-Sep-02 00:33N 47°36' W 122°23'2 2.5
2015-Sep-01 23:33N 47°34' W 122°21'0 0.0
2015-Sep-01 23:32N 47°34' W 122°21'0 0.1
2015-Sep-01 22:34N 47°34' W 122°21'0 0.0
2015-Sep-01 22:17N 47°34' W 122°21'0 0.0
2015-Sep-01 21:33N 47°34' W 122°21'0 0.0
2015-Sep-01 21:32N 47°34' W 122°21'0 0.0
2015-Sep-01 20:33N 47°34' W 122°21'0 0.2
2015-Sep-01 20:31N 47°34' W 122°21'0 0.0
2015-Sep-01 19:33N 47°34' W 122°21'0 0.0
2015-Sep-01 19:31N 47°34' W 122°21'0 0.0
2015-Sep-01 18:33N 47°34' W 122°21'0 0.0
2015-Sep-01 18:31N 47°34' W 122°21'0 0.0
2015-Sep-01 17:32N 47°34' W 122°21'0 0.0
2015-Sep-01 17:31N 47°34' W 122°21'0 0.0
2015-Sep-01 16:34N 47°34' W 122°21'0 0.0
2015-Sep-01 16:31N 47°34' W 122°21'0 0.0
2015-Sep-01 15:33N 47°34' W 122°21'0 0.0
2015-Sep-01 15:31N 47°34' W 122°21'0 0.0
2015-Sep-01 14:33N 47°34' W 122°21'0 0.0
2015-Sep-01 14:31N 47°34' W 122°21'0 0.0
2015-Sep-01 13:33N 47°34' W 122°21'0 0.1
2015-Sep-01 13:31N 47°34' W 122°21'0 0.0
2015-Sep-01 12:34N 47°34' W 122°21'0 0.0
2015-Sep-01 12:30N 47°34' W 122°21'0 0.0
2015-Sep-01 11:34N 47°34' W 122°21'0 0.0
2015-Sep-01 11:30N 47°34' W 122°21'0 0.0
2015-Sep-01 10:34N 47°34' W 122°21'0 0.0
2015-Sep-01 10:30N 47°34' W 122°21'0 0.0
2015-Sep-01 09:33N 47°34' W 122°21'0 0.0
2015-Sep-01 09:30N 47°34' W 122°21'0 0.0
2015-Sep-01 08:33N 47°34' W 122°21'0 0.0
2015-Sep-01 08:29N 47°34' W 122°21'0 0.0
2015-Sep-01 07:33N 47°34' W 122°21'0 0.0
2015-Sep-01 07:29N 47°34' W 122°21'0 0.0
2015-Sep-01 06:33N 47°34' W 122°21'0 0.0
2015-Sep-01 06:29N 47°34' W 122°21'0 0.0
2015-Sep-01 05:34N 47°34' W 122°21'0 0.0
2015-Sep-01 05:28N 47°34' W 122°21'0 0.0
2015-Sep-01 03:33N 47°34' W 122°21'0 0.0
2015-Sep-01 03:29N 47°34' W 122°21'0 0.0
2015-Sep-01 02:33N 47°34' W 122°21'0 0.0
2015-Sep-01 02:33N 47°34' W 122°21'0 0.0
2015-Sep-01 01:33N 47°34' W 122°21'0 0.0
2015-Sep-01 01:33N 47°34' W 122°21'0 0.0
2015-Sep-01 00:34N 47°34' W 122°21'0 0.0
2015-Sep-01 00:33N 47°34' W 122°21'0 0.0
2015-Aug-31 23:34N 47°34' W 122°21'0 0.0
2015-Aug-31 23:33N 47°34' W 122°21'0 0.0
2015-Aug-31 22:33N 47°34' W 122°21'0 0.0
2015-Aug-31 22:33N 47°34' W 122°21'0 0.0
2015-Aug-31 21:33N 47°34' W 122°21'0 0.2
2015-Aug-31 21:32N 47°34' W 122°21'0 0.0
2015-Aug-31 20:33N 47°34' W 122°21'0 0.0
2015-Aug-31 20:32N 47°34' W 122°21'0 0.0
2015-Aug-31 19:33N 47°34' W 122°21'0 0.0
2015-Aug-31 19:32N 47°34' W 122°21'0 0.0
2015-Aug-31 18:33N 47°34' W 122°21'0 0.0
2015-Aug-31 18:32N 47°34' W 122°21'0 0.0
2015-Aug-31 17:33N 47°34' W 122°21'0 0.0
2015-Aug-31 17:32N 47°34' W 122°21'0 0.0
2015-Aug-31 16:33N 47°34' W 122°21'0 0.0
2015-Aug-31 16:31N 47°34' W 122°21'0 0.0
2015-Aug-31 15:33N 47°34' W 122°21'0 0.0
2015-Aug-31 15:26N 47°34' W 122°21'0 0.0
2015-Aug-31 14:33N 47°34' W 122°21'0 0.0
2015-Aug-31 14:31N 47°34' W 122°21'0 0.0
2015-Aug-31 13:34N 47°34' W 122°21'0 0.1
2015-Aug-31 13:31N 47°34' W 122°21'0 0.0
2015-Aug-31 12:33N 47°34' W 122°21'0 0.0
2015-Aug-31 12:30N 47°34' W 122°21'0 0.0
2015-Aug-31 11:31N 47°34' W 122°21'0 0.0
2015-Aug-31 11:30N 47°34' W 122°21'0 0.0
2015-Aug-31 10:33N 47°34' W 122°21'0 0.1
2015-Aug-31 10:30N 47°34' W 122°21'0 0.0
2015-Aug-31 09:33N 47°34' W 122°21'0 0.0
2015-Aug-31 09:15N 47°34' W 122°21'0 0.0
2015-Aug-31 08:33N 47°34' W 122°21'0 0.0
2015-Aug-31 08:28N 47°34' W 122°21'0 0.0
2015-Aug-31 07:33N 47°34' W 122°21'0 0.1
2015-Aug-31 07:29N 47°34' W 122°21'0 0.0
2015-Aug-31 06:33N 47°34' W 122°21'0 0.0
2015-Aug-31 06:29N 47°34' W 122°21'0 0.0
2015-Aug-31 05:33N 47°34' W 122°21'0 0.0
2015-Aug-31 05:19N 47°34' W 122°21'0 0.0
2015-Aug-31 04:33N 47°34' W 122°21'0 0.0
2015-Aug-31 04:28N 47°34' W 122°21'0 0.0
2015-Aug-31 03:33N 47°34' W 122°21'0 0.6
2015-Aug-31 03:33N 47°34' W 122°21'0 0.0
2015-Aug-31 02:33N 47°34' W 122°21'0 0.0
2015-Aug-31 02:33N 47°34' W 122°21'0 0.0
2015-Aug-31 01:34N 47°34' W 122°21'0 0.0
2015-Aug-31 01:33N 47°34' W 122°21'0 0.0
2015-Aug-31 00:33N 47°34' W 122°21'0 0.0
2015-Aug-31 00:33N 47°34' W 122°21'0 0.0
2015-Aug-30 23:34N 47°34' W 122°21'0 0.0
2015-Aug-30 23:33N 47°34' W 122°21'0 0.0
2015-Aug-30 22:33N 47°34' W 122°21'0 0.4
2015-Aug-30 22:33N 47°34' W 122°21'0 0.0
2015-Aug-30 21:33N 47°34' W 122°21'0 0.2
2015-Aug-30 21:32N 47°34' W 122°21'0 0.0
2015-Aug-30 20:32N 47°34' W 122°21'0 0.0
2015-Aug-30 19:32N 47°34' W 122°21'0 0.0
2015-Aug-30 18:33N 47°34' W 122°21'0 0.0
2015-Aug-30 17:33N 47°34' W 122°21'0 0.0
2015-Aug-30 16:33N 47°34' W 122°21'0 0.0
2015-Aug-30 15:33N 47°34' W 122°21'2 1.8
2015-Aug-30 14:33N 47°36' W 122°21'0 0.1
2015-Aug-30 13:33N 47°36' W 122°22'2 1.9
2015-Aug-30 12:33N 47°34' W 122°21'0 0.0
2015-Aug-30 11:33N 47°34' W 122°21'0 0.0
2015-Aug-30 10:33N 47°34' W 122°21'0 0.0
2015-Aug-30 09:33N 47°34' W 122°21'0 0.0
2015-Aug-30 08:33N 47°34' W 122°21'0 0.0
2015-Aug-30 07:33N 47°34' W 122°21'0 0.0
2015-Aug-30 06:33N 47°34' W 122°21'0 0.0
2015-Aug-30 05:34N 47°34' W 122°21'0 0.0
2015-Aug-30 04:34N 47°34' W 122°21'0 0.0
2015-Aug-30 03:33N 47°34' W 122°21'0 0.0
2015-Aug-30 02:33N 47°34' W 122°21'0 0.0
2015-Aug-30 01:32N 47°34' W 122°21'0 0.0
2015-Aug-30 00:33N 47°34' W 122°21'0 0.0
2015-Aug-29 23:33N 47°34' W 122°21'0 0.0
2015-Aug-29 22:33N 47°34' W 122°21'1 1.3
2015-Aug-29 21:33N 47°36' W 122°21'2 1.7
2015-Aug-29 20:33N 47°37' W 122°22'3 2.7
2015-Aug-29 19:33N 47°34' W 122°21'0 0.0
2015-Aug-29 18:33N 47°34' W 122°21'0 0.0
2015-Aug-29 17:32N 47°34' W 122°21'0 0.0
2015-Aug-29 16:33N 47°34' W 122°21'0 0.1
2015-Aug-29 15:33N 47°34' W 122°21'2 1.5
2015-Aug-29 14:33N 47°36' W 122°22'2 1.9
2015-Aug-29 13:33N 47°37' W 122°23'2 1.9
2015-Aug-29 12:33N 47°35' W 122°22'0 0.1
2015-Aug-29 11:34N 47°35' W 122°23'0 0.0
2015-Aug-29 10:33N 47°35' W 122°23'0 0.1
2015-Aug-29 09:33N 47°35' W 122°22'0 0.0
2015-Aug-29 08:33N 47°35' W 122°22'0 0.1
2015-Aug-29 07:33N 47°35' W 122°22'0 0.1
2015-Aug-29 06:33N 47°35' W 122°22'0 0.0
2015-Aug-29 05:34N 47°35' W 122°22'0 0.1
2015-Aug-29 04:34N 47°35' W 122°22'0 0.1
2015-Aug-29 03:33N 47°35' W 122°22'0 0.1
2015-Aug-29 02:33N 47°35' W 122°22'0 0.0
2015-Aug-29 01:33N 47°35' W 122°23'0 0.0
2015-Aug-29 00:33N 47°35' W 122°23'0 0.0
2015-Aug-28 23:33N 47°35' W 122°22'1 1.1
2015-Aug-28 22:33N 47°36' W 122°23'1 1.2
2015-Aug-28 21:33N 47°38' W 122°23'0 0.0
2015-Aug-28 20:33N 47°38' W 122°23'0 0.0
2015-Aug-28 19:33N 47°38' W 122°23'0 0.5
2015-Aug-28 18:33N 47°37' W 122°23'2 2.2
2015-Aug-28 17:33N 47°35' W 122°21'0 0.0
2015-Aug-28 16:33N 47°35' W 122°21'0 0.0
2015-Aug-28 15:33N 47°35' W 122°21'2 1.7
2015-Aug-28 14:33N 47°37' W 122°22'1 1.0
2015-Aug-28 13:33N 47°38' W 122°23'2 2.3
2015-Aug-28 12:33N 47°36' W 122°21'0 0.4
2015-Aug-28 11:33N 47°35' W 122°21'0 0.0
2015-Aug-28 10:33N 47°35' W 122°21'0 0.0
2015-Aug-28 09:33N 47°35' W 122°21'0 0.0
2015-Aug-28 08:33N 47°35' W 122°21'0 0.0
2015-Aug-28 07:33N 47°35' W 122°21'0 0.0
2015-Aug-28 06:33N 47°35' W 122°21'0 0.0
2015-Aug-28 05:33N 47°35' W 122°21'0 0.0
2015-Aug-28 04:33N 47°35' W 122°21'0 0.0
2015-Aug-28 03:33N 47°35' W 122°21'0 0.0
2015-Aug-28 02:33N 47°35' W 122°21'0 0.0
2015-Aug-28 01:33N 47°35' W 122°21'0 0.0
2015-Aug-28 00:33N 47°35' W 122°21'0 0.0
2015-Aug-27 23:33N 47°35' W 122°21'1 1.0
2015-Aug-27 22:33N 47°34' W 122°21'1 1.0
2015-Aug-27 21:32N 47°35' W 122°21'0 0.0
2015-Aug-27 20:29N 47°35' W 122°21'0 0.0
2015-Aug-27 19:32N 47°35' W 122°21'0 0.0
2015-Aug-27 18:33N 47°35' W 122°21'1 0.9
2015-Aug-27 17:33N 47°35' W 122°21'1 0.9
2015-Aug-27 16:33N 47°35' W 122°21'1 0.7
2015-Aug-27 15:33N 47°35' W 122°21'1 0.7
2015-Aug-27 14:32N 47°35' W 122°21'0 0.0
2015-Aug-27 13:32N 47°35' W 122°21'0 0.0
2015-Aug-27 12:33N 47°35' W 122°21'0 0.0
2015-Aug-27 11:33N 47°35' W 122°21'0 0.0
2015-Aug-27 10:30N 47°35' W 122°21'0 0.0
2015-Aug-27 09:33N 47°35' W 122°21'0 0.0
2015-Aug-27 08:32N 47°35' W 122°21'0 0.0
2015-Aug-27 07:14N 47°35' W 122°21'0 0.0
2015-Aug-27 06:33N 47°35' W 122°21'0 0.0
2015-Aug-27 05:31N 47°35' W 122°21'0 0.0
2015-Aug-27 04:33N 47°35' W 122°21'0 0.0
2015-Aug-27 03:33N 47°35' W 122°21'1 1.0
2015-Aug-27 02:33N 47°34' W 122°21'0 0.0
2015-Aug-27 01:33N 47°34' W 122°21'0 0.0
2015-Aug-27 00:33N 47°34' W 122°21'0 0.0
2015-Aug-26 23:33N 47°34' W 122°21'1 1.0
2015-Aug-26 22:33N 47°35' W 122°21'0 0.0
2015-Aug-26 21:33N 47°35' W 122°21'0 0.0
2015-Aug-26 20:33N 47°35' W 122°21'0 0.0
2015-Aug-26 19:33N 47°35' W 122°21'0 0.0
2015-Aug-26 18:33N 47°35' W 122°21'0 0.0
2015-Aug-26 17:33N 47°35' W 122°21'0 0.0
2015-Aug-26 16:33N 47°35' W 122°21'0 0.0
2015-Aug-26 15:33N 47°35' W 122°21'0 0.0
2015-Aug-26 14:33N 47°35' W 122°21'0 0.0
2015-Aug-26 13:33N 47°35' W 122°21'0 0.0
2015-Aug-26 12:33N 47°35' W 122°21'0 0.0
2015-Aug-26 11:33N 47°35' W 122°21'0 0.0
2015-Aug-26 10:33N 47°35' W 122°21'0 0.0
2015-Aug-26 09:33N 47°35' W 122°21'2 2.5
2015-Aug-26 08:33N 47°37' W 122°24'5 4.8
2015-Aug-26 07:33N 47°41' W 122°28'7 6.7
2015-Aug-26 06:33N 47°47' W 122°27'7 6.7
2015-Aug-26 05:33N 47°54' W 122°30'6 6.4
2015-Aug-26 04:33N 47°59' W 122°36'7 5.8
2015-Aug-26 03:24N 48°05' W 122°40'17 5.5
2015-Aug-26 00:21N 48°21' W 122°46'5 6.3
2015-Aug-25 23:31N 48°26' W 122°45'5 5.5
2015-Aug-25 22:33N 48°32' W 122°45'5 4.6
2015-Aug-25 21:33N 48°36' W 122°46'4 4.4
2015-Aug-25 20:33N 48°40' W 122°44'6 5.2
2015-Aug-25 19:27N 48°46' W 122°46'5 5.5
2015-Aug-25 18:33N 48°51' W 122°47'1 0.2
2015-Aug-25 13:04N 48°52' W 122°45'0 0.0
2015-Aug-25 12:21N 48°52' W 122°45'0 0.0
2015-Aug-25 11:24N 48°52' W 122°45'0 0.0
2015-Aug-25 10:28N 48°52' W 122°45'0 0.0
2015-Aug-25 09:33N 48°52' W 122°45'0 0.0
2015-Aug-25 08:29N 48°52' W 122°45'0 0.0
2015-Aug-25 07:20N 48°52' W 122°45'0 0.0
2015-Aug-25 06:07N 48°52' W 122°45'0 0.0
2015-Aug-25 05:28N 48°52' W 122°45'0 0.0
2015-Aug-25 04:34N 48°52' W 122°45'0 0.0
2015-Aug-25 03:27N 48°52' W 122°45'0 0.0
2015-Aug-25 02:33N 48°52' W 122°45'0 0.0
2015-Aug-25 01:32N 48°52' W 122°45'0 0.0
2015-Aug-25 00:33N 48°52' W 122°45'0 0.0
2015-Aug-24 23:27N 48°52' W 122°45'0 0.0
2015-Aug-24 22:33N 48°52' W 122°45'2 0.5
2015-Aug-24 19:25N 48°50' W 122°45'1 1.5
2015-Aug-24 18:33N 48°51' W 122°47'1 1.0
2015-Aug-24 17:33N 48°52' W 122°47'2 1.6
2015-Aug-24 16:33N 48°50' W 122°46'3 2.9
2015-Aug-24 15:33N 48°52' W 122°50'2 2.4
2015-Aug-24 14:33N 48°54' W 122°51'3 3.2
2015-Aug-24 13:33N 48°52' W 122°48'3 2.6
2015-Aug-24 12:33N 48°50' W 122°46'3 3.5
2015-Aug-24 11:33N 48°46' W 122°45'4 3.7
2015-Aug-24 10:33N 48°43' W 122°44'3 3.1
2015-Aug-24 09:33N 48°40' W 122°43'3 2.7
2015-Aug-24 08:33N 48°37' W 122°44'3 2.6
2015-Aug-24 07:33N 48°35' W 122°45'4 3.8
2015-Aug-24 06:33N 48°31' W 122°44'4 3.6
2015-Aug-24 05:33N 48°27' W 122°44'5 3.5
2015-Aug-24 04:09N 48°24' W 122°49'  

Dump ship's entire track history